createdAt,value
2022-12-11T00:04:18.460Z,99946.25
2022-12-11T00:09:20.994Z,99946.47
2022-12-11T00:14:22.457Z,99948.22
2022-12-11T00:19:23.923Z,99948.19
2022-12-11T00:24:25.410Z,99940.59
2022-12-11T00:29:26.923Z,99943.84
2022-12-11T00:34:28.423Z,99955.47
2022-12-11T00:39:29.878Z,99945.50
2022-12-11T00:44:31.388Z,99948.94
2022-12-11T00:49:33.007Z,99955.78
2022-12-11T00:54:34.583Z,99953.38
2022-12-11T00:59:36.019Z,99966.75
2022-12-11T01:04:37.521Z,99960.13
2022-12-11T01:09:57.968Z,99957.63
2022-12-11T01:14:59.406Z,99971.00
2022-12-11T01:20:00.850Z,99970.16
2022-12-11T01:25:02.648Z,99978.44
2022-12-11T01:30:07.476Z,99974.25
2022-12-11T01:35:09.920Z,99976.75
2022-12-11T01:40:16.855Z,99968.47
2022-12-11T01:45:40.322Z,99976.84
2022-12-11T01:50:52.230Z,99983.47
2022-12-11T01:55:57.127Z,99992.56
2022-12-11T02:00:59.240Z,99990.00
2022-12-11T02:06:01.847Z,99994.13
2022-12-11T02:11:21.013Z,99999.97
2022-12-11T02:16:42.126Z,100001.63
2022-12-11T02:21:49.370Z,100004.91
2022-12-11T02:27:08.853Z,99997.34
2022-12-11T02:32:31.310Z,99994.84
2022-12-11T02:37:38.019Z,100001.59
2022-12-11T02:42:42.478Z,99999.09
2022-12-11T02:47:47.159Z,100003.19
2022-12-11T02:52:51.764Z,99999.91
2022-12-11T02:58:00.371Z,99996.59
2022-12-11T03:03:02.435Z,99983.97
2022-12-11T03:08:04.383Z,99975.56
2022-12-11T03:13:05.896Z,99983.03
2022-12-11T03:18:32.100Z,99982.19
2022-12-11T03:23:44.020Z,99976.28
2022-12-11T03:28:59.573Z,99976.13
2022-12-11T03:34:04.462Z,99977.81
2022-12-11T03:39:12.505Z,99967.88
2022-12-11T03:44:15.906Z,99965.41
2022-12-11T03:49:22.068Z,99967.13
2022-12-11T03:54:24.836Z,99971.38
2022-12-11T03:59:26.284Z,99975.53
2022-12-11T04:04:27.826Z,99980.59
2022-12-11T04:09:29.438Z,99971.44
2022-12-11T04:14:49.557Z,99971.47
2022-12-11T04:20:09.518Z,99970.66
2022-12-11T04:25:11.375Z,99963.19
2022-12-11T04:30:16.574Z,99970.66
2022-12-11T04:35:20.110Z,99961.53
2022-12-11T04:40:22.459Z,99974.91
2022-12-11T04:45:23.940Z,99983.28
2022-12-11T04:50:25.972Z,99985.84
2022-12-11T04:55:27.392Z,99985.03
2022-12-11T05:00:28.821Z,99980.06
2022-12-11T05:05:30.328Z,99969.22
2022-12-11T05:10:31.906Z,99966.69
2022-12-11T05:15:33.394Z,99964.16
2022-12-11T05:20:34.888Z,99966.63
2022-12-11T05:25:36.328Z,99964.97
2022-12-11T05:30:37.880Z,99963.28
2022-12-11T05:35:39.363Z,99949.09
2022-12-11T05:40:40.908Z,99944.91
2022-12-11T05:45:42.349Z,99947.44
2022-12-11T05:50:43.904Z,99941.59
2022-12-11T05:55:45.332Z,99934.13
2022-12-11T06:00:47.889Z,99934.88
2022-12-11T06:05:49.453Z,99929.84
2022-12-11T06:10:51.006Z,99933.16
2022-12-11T06:15:53.116Z,99929.03
2022-12-11T06:20:54.726Z,99928.25
2022-12-11T06:25:56.183Z,99924.97
2022-12-11T06:31:01.264Z,99914.91
2022-12-11T06:36:04.431Z,99919.88
2022-12-11T06:41:07.257Z,99928.25
2022-12-11T06:46:11.690Z,99921.63
2022-12-11T06:51:16.265Z,99921.63
2022-12-11T06:56:17.744Z,99926.53
2022-12-11T07:01:27.314Z,99925.63
2022-12-11T07:06:29.838Z,99935.53
2022-12-11T07:11:31.340Z,99936.28
2022-12-11T07:16:32.955Z,99933.72
2022-12-11T07:21:34.692Z,99931.25
2022-12-11T07:26:36.168Z,99933.81
2022-12-11T07:31:37.739Z,99933.81
2022-12-11T07:36:39.355Z,99943.84
2022-12-11T07:41:40.963Z,99938.19
2022-12-11T07:46:42.609Z,99939.94
2022-12-11T07:51:44.124Z,99948.34
2022-12-11T07:56:52.781Z,99945.91
2022-12-11T08:01:55.162Z,99947.63
2022-12-11T08:06:57.780Z,99941.00
2022-12-11T08:11:59.298Z,99948.59
2022-12-11T08:17:02.515Z,99949.50
2022-12-11T08:22:04.156Z,99952.91
2022-12-11T08:27:05.721Z,99953.75
2022-12-11T08:32:12.072Z,99955.44
2022-12-11T08:37:13.999Z,99954.63
2022-12-11T08:42:15.512Z,99952.13
2022-12-11T08:47:17.067Z,99956.34
2022-12-11T08:52:18.707Z,99945.53
2022-12-11T08:57:20.213Z,99948.88
2022-12-11T09:02:21.830Z,99938.03
2022-12-11T09:07:23.336Z,99937.19
2022-12-11T09:12:24.987Z,99924.69
2022-12-11T09:17:26.947Z,99920.53
2022-12-11T09:22:28.683Z,99928.06
2022-12-11T09:27:30.210Z,99925.53
2022-12-11T09:32:31.825Z,99928.06
2022-12-11T09:37:34.006Z,99918.03
2022-12-11T09:43:03.303Z,99914.69
2022-12-11T09:48:05.203Z,99914.69
2022-12-11T09:53:19.561Z,99917.16
2022-12-11T09:58:21.011Z,99904.59
2022-12-11T10:03:37.137Z,99894.47
2022-12-11T10:08:41.587Z,99891.06
2022-12-11T10:13:46.086Z,99888.59
2022-12-11T10:18:49.174Z,99876.84
2022-12-11T10:23:58.564Z,99865.91
2022-12-11T10:29:01.873Z,99856.69
2022-12-11T10:34:11.745Z,99855.81
2022-12-11T10:39:22.110Z,99849.88
2022-12-11T10:44:28.403Z,99846.66
2022-12-11T10:49:31.973Z,99848.38
2022-12-11T10:54:38.310Z,99843.25
2022-12-11T10:59:50.054Z,99841.63
2022-12-11T11:04:53.192Z,99838.28
2022-12-11T11:10:14.260Z,99829.06
2022-12-11T11:15:18.095Z,99818.97
2022-12-11T11:20:22.648Z,99821.41
2022-12-11T11:25:27.011Z,99818.81
2022-12-11T11:30:38.513Z,99820.53
2022-12-11T11:35:45.658Z,99819.69
2022-12-11T11:41:14.777Z,99817.16
2022-12-11T11:46:38.608Z,99815.47
2022-12-11T11:51:46.272Z,99807.03
2022-12-11T11:56:53.809Z,99806.06
2022-12-11T12:01:57.173Z,99801.03
2022-12-11T12:07:10.646Z,99803.56
2022-12-11T12:12:37.220Z,99796.09
2022-12-11T12:17:56.476Z,99799.47
2022-12-11T12:23:14.295Z,99795.31
2022-12-11T12:28:27.874Z,99796.97
2022-12-11T12:34:21.858Z,99783.63
2022-12-11T12:39:48.273Z,99782.66
2022-12-11T12:45:07.915Z,99776.75
2022-12-11T12:50:13.891Z,99773.31
2022-12-11T12:55:29.009Z,99772.50
2022-12-11T13:00:30.484Z,99770.84
2022-12-11T13:05:34.465Z,99773.41
2022-12-11T13:10:38.093Z,99773.41
2022-12-11T13:15:43.828Z,99767.53
2022-12-11T13:20:51.765Z,99774.25
2022-12-11T13:25:59.590Z,99772.56
2022-12-11T13:31:24.103Z,99771.69
2022-12-11T13:36:37.801Z,99770.09
2022-12-11T13:41:40.446Z,99777.72
2022-12-11T13:46:44.067Z,99777.78
2022-12-11T13:51:53.228Z,99780.31
2022-12-11T13:57:00.418Z,99782.06
2022-12-11T14:02:12.970Z,99781.31
2022-12-11T14:07:20.798Z,99787.28
2022-12-11T14:12:22.421Z,99802.41
2022-12-11T14:17:27.540Z,99805.75
2022-12-11T14:22:30.470Z,99799.06
2022-12-11T14:27:32.244Z,99810.84
2022-12-11T14:32:45.021Z,99820.88
2022-12-11T14:37:46.904Z,99814.22
2022-12-11T14:43:00.011Z,99818.41
2022-12-11T14:48:07.776Z,99829.28
2022-12-11T14:53:29.305Z,99825.97
2022-12-11T14:58:33.092Z,99828.53
2022-12-11T15:03:37.083Z,99835.22
2022-12-11T15:08:38.662Z,99836.91
2022-12-11T15:14:02.997Z,99833.59
2022-12-11T15:19:04.691Z,99843.66
2022-12-11T15:24:07.107Z,99850.34
2022-12-11T15:29:30.760Z,99846.97
2022-12-11T15:34:43.072Z,99859.50
2022-12-11T15:39:44.648Z,99853.56
2022-12-11T15:44:46.369Z,99856.91
2022-12-11T15:49:47.776Z,99851.91
2022-12-11T15:54:49.200Z,99849.44
2022-12-11T15:59:52.663Z,99855.31
2022-12-11T16:04:54.498Z,99856.13
2022-12-11T16:09:55.918Z,99862.00
2022-12-11T16:14:57.409Z,99862.00
2022-12-11T16:19:58.963Z,99856.97
2022-12-11T16:25:00.508Z,99865.38
2022-12-11T16:30:01.985Z,99856.16
2022-12-11T16:35:03.750Z,99857.00
2022-12-11T16:40:06.696Z,99860.38
2022-12-11T16:45:12.745Z,99856.19
2022-12-11T16:50:15.716Z,99852.03
2022-12-11T16:55:21.049Z,99854.53
2022-12-11T17:00:22.795Z,99850.38
2022-12-11T17:05:24.889Z,99844.53
2022-12-11T17:10:26.331Z,99848.69
2022-12-11T17:15:27.927Z,99838.69
2022-12-11T17:20:29.472Z,99829.50
2022-12-11T17:25:30.994Z,99832.00
2022-12-11T17:30:32.890Z,99830.31
2022-12-11T17:35:34.592Z,99820.28
2022-12-11T17:40:40.300Z,99818.63
2022-12-11T17:45:43.436Z,99824.47
2022-12-11T17:50:47.026Z,99809.44
2022-12-11T17:55:49.818Z,99816.94
2022-12-11T18:00:55.714Z,99815.25
2022-12-11T18:05:57.799Z,99815.25
2022-12-11T18:11:13.467Z,99813.59
2022-12-11T18:16:18.154Z,99803.53
2022-12-11T18:21:22.709Z,99802.69
2022-12-11T18:26:24.503Z,99815.16
2022-12-11T18:31:26.206Z,99820.13
2022-12-11T18:36:27.771Z,99815.06
2022-12-11T18:41:29.241Z,99820.00
2022-12-11T18:46:30.734Z,99818.28
2022-12-11T18:51:32.280Z,99825.75
2022-12-11T18:56:33.826Z,99832.38
2022-12-11T19:01:35.455Z,99834.88
2022-12-11T19:06:37.002Z,99835.66
2022-12-11T19:11:40.506Z,99840.50
2022-12-11T19:16:45.390Z,99840.41
2022-12-11T19:21:47.507Z,99833.78
2022-12-11T19:26:49.412Z,99823.78
2022-12-11T19:31:51.651Z,99845.41
2022-12-11T19:36:53.773Z,99845.38
2022-12-11T19:41:55.412Z,99841.19
2022-12-11T19:46:56.998Z,99850.38
2022-12-11T19:51:58.715Z,99856.41
2022-12-11T19:57:00.228Z,99856.53
2022-12-11T20:02:01.750Z,99861.66
2022-12-11T20:07:03.910Z,99852.56
2022-12-11T20:12:10.195Z,99861.78
2022-12-11T20:17:14.627Z,99864.31
2022-12-11T20:22:16.505Z,99861.84
2022-12-11T20:27:18.155Z,99865.19
2022-12-11T20:32:19.727Z,99863.53
2022-12-11T20:37:21.242Z,99865.22
2022-12-11T20:42:24.117Z,99876.06
2022-12-11T20:47:25.887Z,99875.22
2022-12-11T20:52:28.150Z,99869.41
2022-12-11T20:57:29.575Z,99871.97
2022-12-11T21:02:31.293Z,99872.84
2022-12-11T21:07:32.871Z,99878.69
2022-12-11T21:12:34.322Z,99871.19
2022-12-11T21:17:35.954Z,99877.84
2022-12-11T21:22:37.514Z,99878.69
2022-12-11T21:27:39.091Z,99875.34
2022-12-11T21:32:41.345Z,99874.50
2022-12-11T21:37:42.789Z,99879.50
2022-12-11T21:42:44.232Z,99873.69
2022-12-11T21:47:45.730Z,99876.22
2022-12-11T21:52:47.563Z,99888.75
2022-12-11T21:57:49.078Z,99889.56
2022-12-11T22:02:50.866Z,99885.41
2022-12-11T22:07:52.414Z,99891.22
2022-12-11T22:12:53.922Z,99896.25
2022-12-11T22:17:55.383Z,99894.59
2022-12-11T22:22:56.913Z,99900.47
2022-12-11T22:27:58.350Z,99899.63
2022-12-11T22:32:59.839Z,99891.25
2022-12-11T22:38:01.743Z,99893.78
2022-12-11T22:43:03.209Z,99888.78
2022-12-11T22:48:05.162Z,99882.09
2022-12-11T22:53:06.652Z,99883.75
2022-12-11T22:58:08.071Z,99887.09
2022-12-11T23:03:09.712Z,99886.25
2022-12-11T23:08:11.351Z,99886.19
2022-12-11T23:13:12.825Z,99885.38
2022-12-11T23:18:14.367Z,99885.44
2022-12-11T23:23:15.779Z,99893.78
2022-12-11T23:28:17.270Z,99897.97
2022-12-11T23:33:18.823Z,99889.63
2022-12-11T23:38:20.288Z,99897.16
2022-12-11T23:43:22.237Z,99904.66
2022-12-11T23:48:23.722Z,99896.31
2022-12-11T23:53:25.219Z,99903.81
2022-12-11T23:58:26.646Z,99903.00
